Time;durP1;ratioP1;P1;durP2;ratioP2;P2;SDS_P1;SDS_P2;PMS_P1;PMS_P2;Temp;Humidity;BMP_temperature;BMP_pressure;BME280_temperature;BME280_humidity;BME280_pressure;Samples;Min_cycle;Max_cycle;Signal;HPM_P1;HPM_P2
2022/08/14 00:01:00;;;;;;;67.67;6.67;;;23.10;1.00;;;;;;5064054;28;20823;-82
2022/08/14 00:03:28;;;;;;;69.83;5.60;;;23.00;1.00;;;;;;5081718;28;20444;-82
2022/08/14 00:05:55;;;;;;;68.20;6.30;;;22.90;1.00;;;;;;5081846;28;20465;-82
2022/08/14 00:08:21;;;;;;;69.70;6.43;;;22.70;1.00;;;;;;5081801;28;20396;-82
2022/08/14 00:10:47;;;;;;;70.83;5.50;;;22.60;1.00;;;;;;5081481;28;20395;-82
2022/08/14 00:13:14;;;;;;;68.03;5.73;;;22.60;1.00;;;;;;5063386;28;20417;-82
2022/08/14 00:15:42;;;;;;;68.70;5.70;;;22.40;1.00;;;;;;5081676;28;20170;-82
2022/08/14 00:18:10;;;;;;;68.10;6.00;;;22.30;1.00;;;;;;5085425;28;20501;-82
2022/08/14 00:20:41;;;;;;;66.83;5.17;;;22.50;1.00;;;;;;5085030;28;20414;-82
2022/08/14 00:23:09;;;;;;;68.10;6.00;;;22.40;1.00;;;;;;5085149;28;20967;-82
2022/08/14 00:25:35;;;;;;;69.13;6.00;;;22.20;1.00;;;;;;5085194;28;20455;-82
2022/08/14 00:28:01;;;;;;;69.33;5.80;;;22.10;1.00;;;;;;5067198;28;20418;-82
2022/08/14 00:30:27;;;;;;;70.80;7.40;;;21.90;1.00;;;;;;5084960;28;20410;-82
2022/08/14 00:32:53;;;;;;;70.30;6.23;;;21.90;1.00;;;;;;5085355;28;20407;-82
2022/08/14 00:35:19;;;;;;;68.37;6.03;;;22.00;1.00;;;;;;5062993;28;20410;-82
2022/08/14 00:37:45;;;;;;;68.20;5.93;;;22.30;1.00;;;;;;5085813;28;20501;-82
2022/08/14 00:40:14;;;;;;;68.07;6.03;;;22.30;1.00;;;;;;5081290;28;20176;-82
2022/08/14 00:42:41;;;;;;;67.37;6.47;;;22.20;1.00;;;;;;5080613;28;20817;-82
2022/08/14 00:45:10;;;;;;;68.80;6.37;;;22.20;1.00;;;;;;5084882;28;20429;-82
2022/08/14 00:47:36;;;;;;;67.50;5.20;;;22.10;1.00;;;;;;5085181;28;20505;-82
2022/08/14 00:50:06;;;;;;;67.50;5.87;;;22.20;1.00;;;;;;5066518;28;20406;-82
2022/08/14 00:52:32;;;;;;;69.10;5.83;;;22.20;1.00;;;;;;5061814;28;20187;-82
2022/08/14 00:54:58;;;;;;;67.67;5.70;;;22.00;1.00;;;;;;5085039;28;20398;-82
2022/08/14 00:57:27;;;;;;;67.60;5.50;;;22.00;1.00;;;;;;5084888;28;20938;-82
2022/08/14 00:59:53;;;;;;;68.57;5.90;;;21.80;1.00;;;;;;5084888;28;20402;-82
2022/08/14 01:02:23;;;;;;;69.10;5.50;;;21.80;1.00;;;;;;5084455;28;20444;-82
2022/08/14 01:04:51;;;;;;;68.07;6.17;;;21.70;1.00;;;;;;5080639;28;20168;-82
2022/08/14 01:07:20;;;;;;;67.37;5.57;;;21.70;1.00;;;;;;5084183;28;20423;-82
2022/08/14 01:09:51;;;;;;;69.20;6.30;;;21.80;1.00;;;;;;5079899;28;20455;-82
2022/08/14 01:12:17;;;;;;;72.50;6.33;;;21.80;1.00;;;;;;5062628;28;20406;-82
2022/08/14 01:14:43;;;;;;;66.50;6.33;;;21.80;1.00;;;;;;5084886;28;20529;-82
2022/08/14 01:17:10;;;;;;;68.70;5.97;;;21.80;1.00;;;;;;5066319;28;20430;-82
2022/08/14 01:22:20;;;;;;;68.40;6.53;;;21.60;1.00;;;;;;5084610;28;21021;-82
2022/08/14 01:24:47;;;;;;;67.70;6.83;;;21.60;1.00;;;;;;5084227;28;20403;-82
2022/08/14 01:27:21;;;;;;;67.60;6.40;;;21.70;1.00;;;;;;5066419;28;20607;-82
2022/08/14 01:29:50;;;;;;;70.37;7.20;;;21.60;1.00;;;;;;5066335;28;20414;-82
2022/08/14 01:32:20;;;;;;;68.83;6.27;;;21.60;1.00;;;;;;5061541;28;20460;-82
2022/08/14 01:34:49;;;;;;;66.27;5.70;;;21.60;1.00;;;;;;5079379;28;20492;-82
2022/08/14 01:37:15;;;;;;;68.07;6.67;;;21.50;1.00;;;;;;5080266;28;20805;-82
2022/08/14 01:39:41;;;;;;;67.17;6.30;;;21.50;1.00;;;;;;5079852;28;20438;-82
2022/08/14 01:42:07;;;;;;;68.30;6.47;;;21.40;1.00;;;;;;5080227;28;20251;-82
2022/08/14 01:44:33;;;;;;;69.20;7.50;;;21.30;1.00;;;;;;5079723;28;20835;-82
2022/08/14 01:47:02;;;;;;;68.57;5.70;;;21.20;1.00;;;;;;5079899;28;20184;-82
2022/08/14 01:49:30;;;;;;;68.27;5.97;;;21.20;1.00;;;;;;5079839;28;20176;-82
2022/08/14 01:51:56;;;;;;;68.50;6.70;;;21.20;1.00;;;;;;5062529;28;20406;-82
2022/08/14 01:54:23;;;;;;;68.73;5.80;;;21.10;1.00;;;;;;5080431;28;20421;-82
2022/08/14 01:56:55;;;;;;;66.17;5.53;;;21.10;1.00;;;;;;5080400;28;20192;-82
2022/08/14 01:59:27;;;;;;;67.00;5.57;;;21.00;1.00;;;;;;5062125;28;20413;-82
2022/08/14 02:01:55;;;;;;;67.87;5.93;;;21.00;1.00;;;;;;5062441;28;20882;-82
2022/08/14 02:04:23;;;;;;;67.00;6.00;;;20.80;1.00;;;;;;5066032;28;20421;-82
2022/08/14 02:06:50;;;;;;;68.70;7.20;;;20.80;1.00;;;;;;5083580;28;20418;-82
2022/08/14 02:09:17;;;;;;;68.07;6.40;;;20.90;1.00;;;;;;5083112;28;20399;-82
2022/08/14 02:11:44;;;;;;;69.50;7.13;;;20.90;1.50;;;;;;5084588;28;20512;-82
2022/08/14 02:14:11;;;;;;;67.57;6.30;;;20.90;3.70;;;;;;5083632;28;20402;-82
2022/08/14 02:16:42;;;;;;;69.47;6.53;;;21.00;2.90;;;;;;5083887;28;20426;-82
2022/08/14 02:19:16;;;;;;;67.40;6.07;;;21.10;1.00;;;;;;5066354;28;20398;-82
2022/08/14 02:21:44;;;;;;;69.80;6.63;;;21.00;2.90;;;;;;5084402;28;20438;-82
2022/08/14 02:24:12;;;;;;;68.80;6.70;;;21.00;1.70;;;;;;5088109;28;20413;-82
2022/08/14 02:26:40;;;;;;;69.07;6.00;;;21.00;1.00;;;;;;5083851;28;20455;-82
2022/08/14 02:29:12;;;;;;;69.77;7.40;;;21.10;1.00;;;;;;5083681;28;20382;-82
2022/08/14 02:31:41;;;;;;;67.97;6.83;;;21.10;1.00;;;;;;5065719;28;20429;-82
2022/08/14 02:34:19;;;;;;;68.07;6.90;;;21.10;1.00;;;;;;5083608;28;20409;-82
2022/08/14 02:36:48;;;;;;;69.77;7.23;;;21.00;2.60;;;;;;5084188;28;20426;-82
2022/08/14 02:39:14;;;;;;;68.67;8.87;;;21.00;2.70;;;;;;5084287;28;20407;-82
2022/08/14 02:41:43;;;;;;;69.60;8.93;;;21.00;7.80;;;;;;5083557;28;20805;-82
2022/08/14 02:44:10;;;;;;;68.50;9.30;;;21.00;7.80;;;;;;5087760;28;20394;-82
2022/08/14 02:46:37;;;;;;;71.90;13.80;;;20.90;10.80;;;;;;5084119;28;20421;-82
2022/08/14 02:49:05;;;;;;;73.90;16.53;;;20.90;10.90;;;;;;5083563;28;20406;-82
2022/08/14 02:51:32;;;;;;;73.07;16.77;;;20.80;18.90;;;;;;5083421;28;20403;-82
2022/08/14 02:54:00;;;;;;;73.10;18.60;;;20.80;22.00;;;;;;5083551;28;20401;-82
2022/08/14 02:56:26;;;;;;;76.23;21.03;;;20.80;24.60;;;;;;5083267;28;20457;-82
2022/08/14 02:58:55;;;;;;;74.17;21.20;;;20.90;20.80;;;;;;5083572;28;20403;-82
2022/08/14 03:01:22;;;;;;;73.20;20.80;;;20.90;21.70;;;;;;5084079;28;20402;-82
2022/08/14 03:03:49;;;;;;;77.63;22.43;;;20.90;24.70;;;;;;5087494;28;20421;-82
2022/08/14 03:06:17;;;;;;;75.43;22.70;;;20.90;25.20;;;;;;5065418;28;20426;-82
2022/08/14 03:08:43;;;;;;;77.10;20.50;;;20.80;34.00;;;;;;5083267;28;20402;-82
2022/08/14 03:11:11;;;;;;;74.50;18.67;;;20.80;36.50;;;;;;5083245;28;20907;-82
2022/08/14 03:13:40;;;;;;;74.60;18.50;;;20.80;37.90;;;;;;5082748;28;20435;-82
2022/08/14 03:16:11;;;;;;;73.07;16.97;;;20.80;40.30;;;;;;5083525;28;20425;-82
2022/08/14 03:18:43;;;;;;;72.37;17.43;;;20.80;40.10;;;;;;5083316;28;20413;-82
2022/08/14 03:21:17;;;;;;;76.47;15.87;;;20.90;30.20;;;;;;5065280;28;20406;-82
2022/08/14 03:23:46;;;;;;;72.27;16.70;;;20.80;36.90;;;;;;5086264;28;20430;-82
2022/08/14 03:26:14;;;;;;;71.30;14.53;;;20.80;43.50;;;;;;5064874;28;20461;-82
2022/08/14 03:28:46;;;;;;;74.27;15.00;;;20.70;44.60;;;;;;5048769;28;20441;-82
2022/08/14 03:31:13;;;;;;;70.00;12.57;;;20.70;48.10;;;;;;5083146;28;20402;-82
2022/08/14 03:33:41;;;;;;;71.37;12.97;;;20.50;52.30;;;;;;5065069;28;20418;-82
2022/08/14 03:36:12;;;;;;;71.97;12.23;;;20.60;49.60;;;;;;5082760;28;20945;-82
2022/08/14 03:38:41;;;;;;;70.80;10.90;;;20.50;54.70;;;;;;5064344;28;20467;-82
2022/08/14 03:41:15;;;;;;;71.40;12.13;;;20.50;57.10;;;;;;5064516;28;20816;-82
2022/08/14 03:43:46;;;;;;;69.80;10.53;;;20.40;56.50;;;;;;5082756;28;20437;-82
2022/08/14 03:46:13;;;;;;;69.10;10.37;;;20.40;59.20;;;;;;5068192;28;20475;-82
2022/08/14 03:48:44;;;;;;;69.37;9.77;;;20.50;53.90;;;;;;5068964;28;20543;-81
2022/08/14 03:51:12;;;;;;;70.20;10.07;;;20.50;52.30;;;;;;5086530;28;20400;-81
2022/08/14 03:53:40;;;;;;;69.00;9.50;;;20.40;52.60;;;;;;5086039;28;20901;-82
2022/08/14 03:56:11;;;;;;;70.07;9.00;;;20.40;55.00;;;;;;5082739;28;20431;-81
2022/08/14 03:58:40;;;;;;;73.97;10.60;;;20.40;55.70;;;;;;5065008;28;20387;-81
2022/08/14 04:01:07;;;;;;;68.57;9.03;;;20.40;55.90;;;;;;5065241;28;20445;-81
2022/08/14 04:03:34;;;;;;;70.57;10.77;;;20.40;52.90;;;;;;5082144;28;20480;-82
2022/08/14 04:06:01;;;;;;;71.47;12.93;;;20.30;60.90;;;;;;5082921;28;20512;-81
2022/08/14 04:08:28;;;;;;;71.00;11.67;;;20.30;60.90;;;;;;5083335;28;20932;-81
2022/08/14 04:10:53;;;;;;;72.37;12.60;;;20.30;60.20;;;;;;5082332;28;20965;-81
2022/08/14 04:13:19;;;;;;;72.20;12.57;;;20.30;69.90;;;;;;5082476;28;20441;-82
2022/08/14 04:15:46;;;;;;;72.77;12.40;;;20.30;66.50;;;;;;5082892;28;20178;-81
2022/08/14 04:18:12;;;;;;;71.60;13.60;;;20.30;72.30;;;;;;5082406;28;20170;-81
2022/08/14 04:20:41;;;;;;;71.30;12.90;;;20.10;74.10;;;;;;5082188;28;20819;-82
2022/08/14 04:23:07;;;;;;;70.53;11.30;;;20.10;73.80;;;;;;5081972;28;20535;-82
2022/08/14 04:25:35;;;;;;;72.47;12.17;;;20.00;73.60;;;;;;5080458;28;20429;-81
2022/08/14 04:28:02;;;;;;;71.57;13.53;;;19.90;79.30;;;;;;5063762;28;20441;-82
2022/08/14 04:30:29;;;;;;;70.97;13.10;;;19.80;80.50;;;;;;5081874;28;20830;-82
2022/08/14 04:32:56;;;;;;;72.13;14.33;;;19.80;84.30;;;;;;5082644;28;20410;-82
2022/08/14 04:35:22;;;;;;;72.67;14.40;;;19.70;86.10;;;;;;5085081;28;20413;-82
2022/08/14 04:46:01;;;;;;;71.80;14.33;;;19.60;90.10;;;;;;5081999;28;20434;-82
2022/08/14 04:48:27;;;;;;;72.80;11.33;;;19.60;91.10;;;;;;5082133;28;20412;-82
2022/08/14 04:50:54;;;;;;;72.57;12.87;;;19.60;92.90;;;;;;5081311;28;20413;-82
2022/08/14 04:53:22;;;;;;;71.77;12.00;;;19.60;93.20;;;;;;5085330;28;20405;-82
2022/08/14 04:55:50;;;;;;;73.60;12.40;;;19.60;92.80;;;;;;5085161;28;20481;-82
2022/08/14 04:58:23;;;;;;;71.37;12.97;;;19.70;93.00;;;;;;5085751;28;20411;-82
2022/08/14 05:00:50;;;;;;;72.53;14.80;;;19.80;92.60;;;;;;5082154;28;20396;-82
2022/08/14 05:03:37;;;;;;;72.50;14.00;;;19.90;87.20;;;;;;5085186;28;20449;-82
2022/08/14 05:06:08;;;;;;;71.53;13.70;;;20.00;74.80;;;;;;5067753;28;20536;-82
2022/08/14 05:08:34;;;;;;;73.27;13.27;;;19.90;83.10;;;;;;5084430;28;20412;-82
2022/08/14 05:11:03;;;;;;;71.63;13.63;;;19.90;86.80;;;;;;5081623;28;20816;-82
2022/08/14 05:13:30;;;;;;;71.07;11.33;;;19.90;91.40;;;;;;5081237;28;20477;-82
2022/08/14 05:15:58;;;;;;;71.60;12.07;;;19.80;92.60;;;;;;5081231;28;20428;-82
2022/08/14 05:18:26;;;;;;;72.00;13.80;;;19.80;93.70;;;;;;5068035;28;20413;-82
2022/08/14 05:20:54;;;;;;;72.00;13.60;;;19.80;95.00;;;;;;5068249;28;20414;-82
2022/08/14 05:23:22;;;;;;;71.53;12.27;;;19.90;94.30;;;;;;5085634;28;20449;-82
2022/08/14 05:25:53;;;;;;;75.17;13.97;;;20.00;94.70;;;;;;5082272;28;20836;-82
2022/08/14 05:28:21;;;;;;;76.37;13.80;;;20.10;95.20;;;;;;5065184;28;20429;-82
2022/08/14 05:30:54;;;;;;;75.67;12.70;;;20.20;94.60;;;;;;5082458;28;20400;-82
2022/08/14 05:33:23;;;;;;;74.20;13.47;;;20.30;94.80;;;;;;5082583;28;20387;-82
2022/08/14 05:35:50;;;;;;;72.93;13.87;;;20.40;94.20;;;;;;5082395;28;20438;-82
2022/08/14 05:38:19;;;;;;;77.60;11.83;;;20.50;92.50;;;;;;5067386;28;20422;-82
2022/08/14 05:40:46;;;;;;;71.80;11.87;;;20.60;90.50;;;;;;5085324;28;20402;-82
2022/08/14 05:43:13;;;;;;;72.57;12.67;;;20.70;90.10;;;;;;5085496;28;20450;-82
2022/08/14 05:45:41;;;;;;;75.20;12.60;;;20.80;86.60;;;;;;5085713;28;20413;-82
2022/08/14 05:48:08;;;;;;;71.50;11.20;;;21.00;83.90;;;;;;5067230;28;20770;-82
2022/08/14 05:50:34;;;;;;;72.50;11.70;;;21.10;81.80;;;;;;5085017;28;20412;-82
2022/08/14 05:53:00;;;;;;;71.30;10.40;;;21.10;81.10;;;;;;5089438;28;20408;-82
2022/08/14 05:55:26;;;;;;;70.07;10.17;;;21.20;77.20;;;;;;5088748;28;20402;-82
2022/08/14 05:57:55;;;;;;;74.43;10.60;;;21.30;75.40;;;;;;5089319;28;20460;-82
2022/08/14 06:00:31;;;;;;;71.53;10.63;;;21.40;74.10;;;;;;5086322;28;20406;-82
2022/08/14 06:03:01;;;;;;;70.63;10.37;;;21.50;71.40;;;;;;5085452;28;20449;-82
2022/08/14 06:05:27;;;;;;;70.40;9.80;;;21.50;70.00;;;;;;5086002;28;20399;-82
2022/08/14 06:07:53;;;;;;;72.10;10.10;;;21.60;67.60;;;;;;5085999;28;20920;-82
2022/08/14 06:10:20;;;;;;;70.77;9.60;;;21.70;67.20;;;;;;5086069;28;20412;-82
2022/08/14 06:12:46;;;;;;;71.67;10.07;;;21.70;69.40;;;;;;5068848;28;20413;-82
2022/08/14 06:15:11;;;;;;;70.97;11.30;;;21.80;64.90;;;;;;5085046;28;20469;-82
2022/08/14 06:17:44;;;;;;;70.70;10.03;;;21.90;66.00;;;;;;5085835;28;20801;-82
2022/08/14 06:20:12;;;;;;;71.50;11.33;;;21.90;64.90;;;;;;5086061;28;20281;-82
2022/08/14 06:22:38;;;;;;;71.40;10.80;;;22.00;58.40;;;;;;5086635;28;20442;-82
2022/08/14 06:25:04;;;;;;;72.77;10.70;;;22.10;59.40;;;;;;5087109;28;20474;-82
2022/08/14 06:27:45;;;;;;;74.80;12.00;;;22.10;57.20;;;;;;5085284;28;20446;-82
2022/08/14 06:30:17;;;;;;;70.33;10.63;;;22.20;56.00;;;;;;5089532;28;20395;-82
2022/08/14 06:32:43;;;;;;;71.30;11.30;;;22.30;55.80;;;;;;5071824;28;20406;-82
2022/08/14 06:35:12;;;;;;;71.50;11.70;;;22.40;53.40;;;;;;5085552;28;20978;-82
2022/08/14 06:37:48;;;;;;;74.10;12.83;;;22.50;51.20;;;;;;5068497;28;20464;-82
2022/08/14 06:40:19;;;;;;;73.50;12.03;;;22.50;49.30;;;;;;5085741;28;20412;-82
2022/08/14 06:42:45;;;;;;;71.53;12.30;;;22.50;50.00;;;;;;5087060;28;20448;-82
2022/08/14 06:45:11;;;;;;;71.87;12.40;;;22.60;49.00;;;;;;5086066;28;20485;-82
2022/08/14 06:47:39;;;;;;;72.50;12.40;;;22.60;48.10;;;;;;5084732;28;20198;-81
2022/08/14 06:50:10;;;;;;;70.60;11.67;;;22.70;50.50;;;;;;5084856;28;20407;-82
2022/08/14 06:52:38;;;;;;;69.50;12.27;;;22.70;48.60;;;;;;5086309;28;20379;-82
2022/08/14 06:55:06;;;;;;;74.00;12.00;;;22.80;45.60;;;;;;5086756;28;20402;-82
2022/08/14 06:57:50;;;;;;;71.60;13.03;;;22.90;45.90;;;;;;5068010;28;20828;-82
2022/08/14 07:00:24;;;;;;;71.10;12.60;;;22.90;44.60;;;;;;5086120;28;20394;-82
2022/08/14 07:05:45;;;;;;;72.03;14.60;;;23.10;42.20;;;;;;5087139;28;20385;-82
2022/08/14 07:08:27;;;;;;;72.37;13.03;;;23.10;39.50;;;;;;5088122;28;20383;-82
2022/08/14 07:10:57;;;;;;;70.57;13.63;;;23.20;40.80;;;;;;5070427;28;20548;-82
2022/08/14 07:13:24;;;;;;;74.30;14.13;;;23.20;39.90;;;;;;5088352;28;20399;-82
2022/08/14 07:15:53;;;;;;;73.50;15.00;;;23.30;39.00;;;;;;5087097;28;20458;-82
2022/08/14 07:18:26;;;;;;;71.77;15.10;;;23.50;38.70;;;;;;5086610;28;20412;-82
2022/08/14 07:20:53;;;;;;;71.80;12.87;;;23.60;38.90;;;;;;5087615;28;20470;-82
2022/08/14 07:23:20;;;;;;;71.67;13.47;;;23.60;32.60;;;;;;5088399;28;20483;-82
2022/08/14 07:25:47;;;;;;;71.77;13.10;;;23.70;29.60;;;;;;5087593;28;20405;-82
2022/08/14 07:28:17;;;;;;;71.43;13.77;;;23.70;29.70;;;;;;5087140;28;20410;-82
2022/08/14 07:30:44;;;;;;;71.10;12.07;;;23.70;30.50;;;;;;5088222;28;20386;-81
2022/08/14 07:33:11;;;;;;;73.67;13.27;;;23.80;27.20;;;;;;5069941;28;20417;-82
2022/08/14 07:35:38;;;;;;;71.63;14.70;;;23.80;27.30;;;;;;5087563;28;20413;-81
2022/08/14 07:38:05;;;;;;;70.63;11.10;;;23.90;27.00;;;;;;5088262;28;20529;-82
2022/08/14 07:40:31;;;;;;;71.70;10.70;;;24.00;24.30;;;;;;5088219;28;20436;-82
2022/08/14 07:42:57;;;;;;;70.33;11.47;;;24.00;24.70;;;;;;5087441;28;20446;-81
2022/08/14 07:45:23;;;;;;;71.40;11.27;;;24.00;24.50;;;;;;5088318;28;20164;-82
2022/08/14 07:47:49;;;;;;;72.17;9.77;;;24.10;23.10;;;;;;5088717;28;20191;-82
2022/08/14 07:50:16;;;;;;;70.20;10.23;;;24.20;22.00;;;;;;5088384;28;20167;-81
2022/08/14 07:52:43;;;;;;;71.20;10.53;;;24.20;19.70;;;;;;5089082;28;20164;-81
2022/08/14 07:55:11;;;;;;;72.23;10.80;;;24.20;19.70;;;;;;5087765;28;20410;-82
2022/08/14 07:57:38;;;;;;;72.37;9.47;;;24.30;21.50;;;;;;5087578;28;20430;-82
2022/08/14 08:00:11;;;;;;;70.50;9.70;;;24.50;20.30;;;;;;5087430;28;20468;-81
2022/08/14 08:02:40;;;;;;;70.27;9.30;;;24.50;19.30;;;;;;5070823;28;20817;-82
2022/08/14 08:05:08;;;;;;;72.33;8.90;;;24.60;19.70;;;;;;5071106;28;20440;-81
2022/08/14 08:07:35;;;;;;;71.23;8.40;;;24.60;18.90;;;;;;5091759;28;20442;-82
2022/08/14 08:10:29;;;;;;;75.57;8.57;;;24.70;18.10;;;;;;5088960;28;20868;-82
2022/08/14 08:12:55;;;;;;;74.00;9.20;;;24.80;15.70;;;;;;5087931;28;20417;-81
2022/08/14 08:15:23;;;;;;;71.37;9.07;;;24.90;16.40;;;;;;5070120;28;20501;-82
2022/08/14 08:17:50;;;;;;;70.07;7.90;;;24.90;15.00;;;;;;5087218;28;21030;-82
2022/08/14 08:20:18;;;;;;;70.57;8.13;;;25.00;12.00;;;;;;5070738;28;20934;-82
2022/08/14 08:22:45;;;;;;;74.20;9.00;;;25.00;9.80;;;;;;5086880;28;20483;-82
2022/08/14 08:25:11;;;;;;;72.57;8.70;;;25.00;10.40;;;;;;5087390;28;20490;-82
2022/08/14 08:27:37;;;;;;;70.40;7.70;;;25.10;10.70;;;;;;5069245;28;20511;-82
2022/08/14 08:30:08;;;;;;;74.73;8.73;;;25.10;7.50;;;;;;5087811;28;20394;-82
2022/08/14 08:32:42;;;;;;;71.77;9.00;;;25.20;9.70;;;;;;5087686;28;20394;-81
2022/08/14 08:35:25;;;;;;;72.80;8.50;;;25.40;8.60;;;;;;5089380;28;20758;-82
2022/08/14 08:37:53;;;;;;;70.47;8.63;;;25.60;6.20;;;;;;5089522;28;20476;-82
2022/08/14 08:40:28;;;;;;;71.17;8.50;;;25.60;1.00;;;;;;5090020;28;20413;-82
2022/08/14 08:42:54;;;;;;;71.30;8.93;;;25.60;1.00;;;;;;5087696;28;20464;-82
2022/08/14 08:45:20;;;;;;;71.13;8.70;;;25.60;1.00;;;;;;5087702;28;20772;-82
2022/08/14 08:47:48;;;;;;;77.27;8.30;;;25.70;1.00;;;;;;5068488;28;20191;-82
2022/08/14 08:50:26;;;;;;;71.70;8.23;;;25.80;1.00;;;;;;5086591;28;20399;-82
2022/08/14 08:52:54;;;;;;;71.10;7.33;;;25.90;1.00;;;;;;5067693;28;20398;-82
2022/08/14 08:55:28;;;;;;;70.00;8.33;;;25.90;1.00;;;;;;5089523;28;20402;-81
2022/08/14 08:57:59;;;;;;;70.33;7.30;;;26.10;1.00;;;;;;5089100;28;20393;-82
2022/08/14 09:00:25;;;;;;;71.40;8.47;;;26.20;1.00;;;;;;5087071;28;20421;-81
2022/08/14 09:03:06;;;;;;;74.40;9.30;;;26.20;1.00;;;;;;5069197;28;20454;-82
2022/08/14 09:05:35;;;;;;;70.50;8.10;;;26.30;1.00;;;;;;5086742;28;20469;-82
2022/08/14 09:08:15;;;;;;;70.07;8.07;;;26.40;1.00;;;;;;5068329;28;20402;-82
2022/08/14 09:10:42;;;;;;;70.00;8.47;;;26.40;1.00;;;;;;5068248;28;20426;-82
2022/08/14 09:13:11;;;;;;;70.23;7.70;;;26.50;1.00;;;;;;5086763;28;20410;-82
2022/08/14 09:15:38;;;;;;;74.50;9.57;;;26.60;1.00;;;;;;5090901;28;20402;-82
2022/08/14 09:18:04;;;;;;;71.40;9.10;;;26.70;1.00;;;;;;5086669;28;20406;-82
2022/08/14 09:20:30;;;;;;;71.17;9.57;;;26.70;1.00;;;;;;5087057;28;20414;-82
2022/08/14 09:22:57;;;;;;;75.27;11.00;;;26.90;1.00;;;;;;5087402;28;20449;-82
2022/08/14 09:25:23;;;;;;;72.80;10.27;;;26.90;1.00;;;;;;5087813;28;20182;-82
2022/08/14 09:27:49;;;;;;;71.50;9.20;;;27.00;1.00;;;;;;5087645;28;20450;-82
2022/08/14 09:30:15;;;;;;;69.97;9.13;;;27.00;1.00;;;;;;5087064;28;20164;-82
2022/08/14 09:33:01;;;;;;;70.80;8.90;;;27.10;1.00;;;;;;5069772;28;20176;-82
2022/08/14 09:35:48;;;;;;;71.60;8.70;;;27.30;1.00;;;;;;5087658;28;20157;-82
2022/08/14 09:38:38;;;;;;;70.33;7.10;;;27.50;1.00;;;;;;5072670;28;20468;-82
2022/08/14 09:41:12;;;;;;;70.93;6.17;;;27.50;1.00;;;;;;5069773;28;20414;-82
2022/08/14 09:44:08;;;;;;;68.83;6.07;;;27.60;1.00;;;;;;5086839;28;20442;-82
2022/08/14 09:46:34;;;;;;;69.50;7.60;;;27.80;1.00;;;;;;5087999;28;20422;-82
2022/08/14 09:49:05;;;;;;;68.27;5.97;;;27.90;1.00;;;;;;5086432;28;20402;-82
2022/08/14 09:51:31;;;;;;;69.57;6.83;;;28.00;1.00;;;;;;5089173;28;20398;-82
2022/08/14 09:54:05;;;;;;;68.97;6.63;;;28.20;1.00;;;;;;5089042;28;20426;-82
2022/08/14 09:56:46;;;;;;;70.80;6.40;;;28.40;1.00;;;;;;5089503;28;20432;-82
2022/08/14 09:59:14;;;;;;;68.97;6.10;;;28.50;1.00;;;;;;5089921;28;20402;-82
2022/08/14 10:01:40;;;;;;;70.47;6.53;;;28.60;1.00;;;;;;5071657;28;20420;-82
2022/08/14 10:04:23;;;;;;;69.87;6.53;;;28.80;1.00;;;;;;5070197;28;20420;-82
2022/08/14 10:06:50;;;;;;;68.27;6.50;;;28.80;1.00;;;;;;5090217;28;20418;-82
2022/08/14 10:09:17;;;;;;;68.57;6.00;;;28.90;1.00;;;;;;5089989;28;20402;-82
2022/08/14 10:11:57;;;;;;;68.47;6.03;;;29.00;1.00;;;;;;5089995;28;20409;-83
2022/08/14 10:14:25;;;;;;;70.00;6.50;;;29.00;1.00;;;;;;5087144;28;20383;-82
2022/08/14 10:16:54;;;;;;;70.17;6.30;;;29.20;1.00;;;;;;5071006;28;20430;-82
2022/08/14 10:19:22;;;;;;;67.87;6.00;;;29.20;1.00;;;;;;5089908;28;20402;-82
2022/08/14 10:22:02;;;;;;;68.87;5.57;;;29.50;1.00;;;;;;5071276;28;20506;-82
2022/08/14 10:24:31;;;;;;;67.77;4.90;;;29.70;1.00;;;;;;5092501;28;20402;-82
2022/08/14 10:27:00;;;;;;;70.00;5.10;;;29.90;1.00;;;;;;5092700;28;20446;-82
2022/08/14 10:29:36;;;;;;;68.57;5.03;;;30.10;1.00;;;;;;5092125;28;20465;-82
2022/08/14 10:32:02;;;;;;;73.70;5.03;;;30.10;1.00;;;;;;5091488;28;20406;-82
2022/08/14 10:34:33;;;;;;;68.07;4.90;;;30.40;1.00;;;;;;5094049;28;20410;-82
2022/08/14 10:37:09;;;;;;;70.20;7.33;;;30.60;1.00;;;;;;5093892;28;20467;-82
2022/08/14 10:39:37;;;;;;;69.43;6.57;;;30.80;1.00;;;;;;5092664;28;20385;-82
2022/08/14 10:42:11;;;;;;;67.80;5.23;;;30.60;1.00;;;;;;5094485;28;20468;-82
2022/08/14 10:44:40;;;;;;;67.80;5.80;;;30.30;1.00;;;;;;5075002;28;20474;-82
2022/08/14 10:47:08;;;;;;;68.77;5.30;;;30.50;1.00;;;;;;5092139;28;20789;-82
2022/08/14 10:49:37;;;;;;;68.37;5.00;;;30.90;1.00;;;;;;5092328;28;20417;-82
2022/08/14 10:52:08;;;;;;;68.60;4.70;;;30.90;1.00;;;;;;5093360;28;20473;-82
2022/08/14 10:54:40;;;;;;;69.27;5.40;;;31.20;1.00;;;;;;5094054;28;20762;-82
2022/08/14 10:57:25;;;;;;;70.90;4.60;;;31.40;1.00;;;;;;5076307;28;20987;-82
2022/08/14 10:59:54;;;;;;;71.50;5.27;;;31.30;1.00;;;;;;5093456;28;20387;-82
2022/08/14 11:02:30;;;;;;;72.47;4.90;;;31.50;1.00;;;;;;5091912;28;20507;-82
2022/08/14 11:05:16;;;;;;;68.60;4.57;;;31.80;1.00;;;;;;5076149;28;20804;-82
2022/08/14 11:07:56;;;;;;;68.57;4.80;;;32.10;1.00;;;;;;5074285;28;20430;-82
2022/08/14 11:10:25;;;;;;;70.07;6.10;;;32.20;1.00;;;;;;5093287;28;20390;-82
2022/08/14 11:12:55;;;;;;;68.87;7.57;;;32.30;1.00;;;;;;5090130;28;20410;-82
2022/08/14 11:15:26;;;;;;;71.43;9.50;;;32.40;1.00;;;;;;5088788;28;20741;-82
2022/08/14 11:17:53;;;;;;;70.50;8.50;;;32.40;1.00;;;;;;5093657;28;20425;-82
2022/08/14 11:20:24;;;;;;;70.30;9.90;;;32.40;1.00;;;;;;5092730;28;20410;-82
2022/08/14 11:22:55;;;;;;;74.17;11.60;;;32.30;1.00;;;;;;5090594;28;20445;-82
2022/08/14 11:25:23;;;;;;;70.77;11.03;;;32.50;1.00;;;;;;5093881;28;20460;-82
2022/08/14 11:27:51;;;;;;;73.47;10.17;;;32.80;1.00;;;;;;5090273;28;20487;-82
2022/08/14 11:30:20;;;;;;;70.60;8.90;;;33.20;1.00;;;;;;5092784;28;20403;-82
2022/08/14 11:32:48;;;;;;;69.97;10.87;;;33.70;1.00;;;;;;5073948;28;20403;-82
2022/08/14 11:35:15;;;;;;;68.97;5.90;;;33.30;1.00;;;;;;5094256;28;20399;-82
2022/08/14 11:37:50;;;;;;;68.70;5.57;;;32.90;1.00;;;;;;5094518;28;20410;-82
2022/08/14 11:40:16;;;;;;;68.83;5.03;;;32.70;1.00;;;;;;5074952;28;20466;-82
2022/08/14 11:42:45;;;;;;;72.30;5.10;;;32.80;1.00;;;;;;5094337;28;20442;-82
2022/08/14 11:45:12;;;;;;;69.00;4.37;;;32.60;1.00;;;;;;5071696;28;20407;-82
2022/08/14 11:47:37;;;;;;;69.50;4.37;;;32.80;1.00;;;;;;5094459;28;20426;-82
2022/08/14 11:50:21;;;;;;;67.50;4.67;;;32.60;1.00;;;;;;5093953;28;20410;-82
2022/08/14 11:52:47;;;;;;;70.40;4.83;;;32.40;1.00;;;;;;5075511;28;20162;-82
2022/08/14 11:55:15;;;;;;;69.03;4.30;;;32.70;1.00;;;;;;5094916;28;20398;-82
2022/08/14 11:57:42;;;;;;;68.97;4.43;;;32.90;1.00;;;;;;5076002;28;20208;-82
2022/08/14 12:00:15;;;;;;;68.77;4.43;;;33.00;1.00;;;;;;5091121;28;20414;-82
2022/08/14 12:02:56;;;;;;;71.50;4.00;;;32.80;1.00;;;;;;5091646;28;20484;-82
2022/08/14 12:05:29;;;;;;;70.80;3.90;;;33.10;1.00;;;;;;5094413;28;20385;-82
2022/08/14 12:07:56;;;;;;;67.30;4.20;;;33.70;1.00;;;;;;5091498;28;20407;-82
2022/08/14 12:10:21;;;;;;;68.70;4.37;;;33.50;1.00;;;;;;5089946;28;20399;-82
2022/08/14 12:12:48;;;;;;;68.77;4.07;;;33.80;1.00;;;;;;5093008;28;20437;-82
2022/08/14 12:15:15;;;;;;;68.53;3.97;;;34.00;1.00;;;;;;5092263;28;20711;-83
2022/08/14 12:17:52;;;;;;;68.70;4.60;;;34.00;1.00;;;;;;5075388;28;20438;-82
2022/08/14 12:20:27;;;;;;;69.83;5.23;;;33.60;1.00;;;;;;5093146;28;20386;-82
2022/08/14 12:22:52;;;;;;;68.40;4.10;;;33.60;1.00;;;;;;5075907;28;20479;-83
2022/08/14 12:25:20;;;;;;;67.57;4.00;;;34.20;1.00;;;;;;5093598;28;20409;-82
2022/08/14 12:27:48;;;;;;;68.60;4.23;;;34.40;1.00;;;;;;5093082;28;20217;-83
2022/08/14 12:30:34;;;;;;;72.40;5.30;;;34.20;1.00;;;;;;5093354;28;20406;-82
2022/08/14 12:33:02;;;;;;;68.67;4.27;;;33.70;1.00;;;;;;5073919;28;20418;-83
2022/08/14 12:35:42;;;;;;;68.60;4.47;;;33.60;1.00;;;;;;5089753;28;20410;-82
2022/08/14 12:38:12;;;;;;;68.63;4.07;;;34.00;1.00;;;;;;5091986;28;20412;-83
2022/08/14 12:40:46;;;;;;;69.03;4.63;;;34.40;1.00;;;;;;5091857;28;20406;-82
2022/08/14 12:43:13;;;;;;;69.47;4.47;;;33.80;1.00;;;;;;5091007;28;20430;-82
2022/08/14 12:45:38;;;;;;;69.07;4.10;;;33.80;1.00;;;;;;5092697;28;20477;-82
2022/08/14 12:48:05;;;;;;;68.93;4.17;;;33.70;1.00;;;;;;5091208;28;20398;-83
2022/08/14 12:50:38;;;;;;;69.97;4.50;;;34.00;1.00;;;;;;5074618;28;20171;-82
2022/08/14 12:53:08;;;;;;;68.90;4.50;;;34.10;1.00;;;;;;5091732;28;20387;-82
2022/08/14 12:55:38;;;;;;;68.53;3.80;;;34.00;1.00;;;;;;5089412;28;20889;-82
2022/08/14 12:58:06;;;;;;;67.70;3.80;;;33.70;1.00;;;;;;5090336;28;20386;-83
2022/08/14 13:00:38;;;;;;;68.40;3.60;;;33.90;1.00;;;;;;5089001;28;20402;-82
2022/08/14 13:03:04;;;;;;;68.37;3.83;;;34.10;1.00;;;;;;5074866;28;20435;-83